Time;durP1;ratioP1;P1;durP2;ratioP2;P2;SDS_P1;SDS_P2;PMS_P1;PMS_P2;Temp;Humidity;BMP_temperature;BMP_pressure;BME280_temperature;BME280_humidity;BME280_pressure;Samples;Min_cycle;Max_cycle;Signal;HPM_P1;HPM_P2
2023/09/17 00:00:20;;;;;;;;;;;;;;;17.03;56.92;101430.69;5074979;28;1023;-60
2023/09/17 00:02:46;;;;;;;;;;;;;;;16.85;56.17;101428.28;5074566;28;899;-60
2023/09/17 00:05:11;;;;;;;;;;;;;;;16.76;55.75;101423.25;5078968;28;1087;-61
2023/09/17 00:07:37;;;;;;;;;;;;;;;16.72;55.56;101416.63;5052011;28;1167;-61
2023/09/17 00:10:03;;;;;;;;;;;;;;;16.58;55.12;101416.19;5072194;28;1902;-60
2023/09/17 00:12:28;;;;;;;;;;;;;;;16.53;55.33;101423.56;5058640;28;1101;-60
2023/09/17 00:14:54;;;;;;;;;;;;;;;16.45;55.09;101415.78;5075227;28;1094;-60
2023/09/17 00:17:19;;;;;;;;;;;;;;;16.42;55.10;101417.97;5051308;28;1102;-60
2023/09/17 00:19:45;;;;;;;;;;;;;;;16.40;54.62;101411.88;5053715;28;1091;-60
2023/09/17 00:22:14;;;;;;;;;;;;;;;16.31;54.98;101405.16;5069083;28;1051;-60
2023/09/17 00:24:40;;;;;;;;;;;;;;;16.84;56.39;101412.88;5075350;28;980;-59
2023/09/17 00:27:05;;;;;;;;;;;;;;;17.44;56.73;101403.53;5058225;28;888;-59
2023/09/17 00:29:31;;;;;;;;;;;;;;;16.99;56.76;101399.31;5041210;28;1051;-59
2023/09/17 00:31:56;;;;;;;;;;;;;;;16.81;56.16;101392.25;5068697;28;1953;-60
2023/09/17 00:34:22;;;;;;;;;;;;;;;16.66;56.14;101389.38;5060207;28;1270;-59
2023/09/17 00:36:47;;;;;;;;;;;;;;;16.59;55.71;101390.41;5077825;28;1110;-59
2023/09/17 00:39:13;;;;;;;;;;;;;;;16.56;55.19;101390.09;5047681;28;1193;-59
2023/09/17 00:41:38;;;;;;;;;;;;;;;16.50;55.13;101386.47;5068765;28;1058;-59
2023/09/17 00:44:04;;;;;;;;;;;;;;;16.44;55.04;101387.50;5066590;28;1083;-59
2023/09/17 00:46:32;;;;;;;;;;;;;;;16.46;54.89;101388.06;5078391;28;1126;-59
2023/09/17 00:48:58;;;;;;;;;;;;;;;16.97;57.03;101389.69;5077895;28;1137;-59
2023/09/17 00:51:24;;;;;;;;;;;;;;;17.39;57.05;101381.50;5050657;28;1909;-59
2023/09/17 00:53:50;;;;;;;;;;;;;;;16.98;57.01;101383.91;5060796;28;1267;-59
2023/09/17 00:56:15;;;;;;;;;;;;;;;16.85;56.51;101384.34;5060152;28;1003;-59
2023/09/17 00:58:41;;;;;;;;;;;;;;;16.71;56.01;101379.25;5044151;28;1178;-59
2023/09/17 01:01:07;;;;;;;;;;;;;;;16.69;55.52;101378.69;5057850;28;1145;-59
2023/09/17 01:03:33;;;;;;;;;;;;;;;16.60;55.39;101374.75;5043286;28;1257;-59
2023/09/17 01:06:00;;;;;;;;;;;;;;;16.53;55.21;101385.13;5040174;28;1242;-59
2023/09/17 01:08:25;;;;;;;;;;;;;;;16.49;54.97;101379.31;5071481;28;1155;-59
2023/09/17 01:10:53;;;;;;;;;;;;;;;16.41;54.91;101377.88;5057588;28;1910;-59
2023/09/17 01:13:19;;;;;;;;;;;;;;;16.45;54.49;101382.84;5062024;28;1110;-59
2023/09/17 01:15:44;;;;;;;;;;;;;;;16.36;54.75;101380.53;5070618;28;889;-59
2023/09/17 01:18:10;;;;;;;;;;;;;;;16.35;54.72;101373.38;5073694;28;1133;-61
2023/09/17 01:21:05;;;;;;;;;;;;;;;17.41;57.04;101373.00;5068194;28;1155;-61
2023/09/17 01:23:32;;;;;;;;;;;;;;;17.10;57.10;101368.09;5057093;28;1230;-60
2023/09/17 01:26:05;;;;;;;;;;;;;;;16.81;56.43;101370.28;5076760;28;1086;-61
2023/09/17 01:28:31;;;;;;;;;;;;;;;16.65;55.95;101369.31;5031255;28;1076;-60
2023/09/17 01:30:57;;;;;;;;;;;;;;;16.66;55.49;101372.88;5075973;28;1901;-60
2023/09/17 01:33:22;;;;;;;;;;;;;;;16.59;55.36;101364.84;5057200;28;1082;-60
2023/09/17 01:35:48;;;;;;;;;;;;;;;16.50;55.10;101364.50;5058277;28;1082;-60
2023/09/17 01:38:13;;;;;;;;;;;;;;;16.39;55.05;101363.56;5056111;28;1083;-60
2023/09/17 01:40:39;;;;;;;;;;;;;;;16.60;55.96;101364.59;5039293;28;1180;-60
2023/09/17 01:43:04;;;;;;;;;;;;;;;17.67;57.04;101354.75;5039631;28;1107;-60
2023/09/17 01:45:30;;;;;;;;;;;;;;;17.17;57.19;101354.13;5057663;28;1147;-60
2023/09/17 01:47:56;;;;;;;;;;;;;;;16.89;56.83;101355.28;5022871;28;1327;-61
2023/09/17 01:50:24;;;;;;;;;;;;;;;16.77;56.28;101352.66;5035830;28;1972;-60
2023/09/17 01:52:50;;;;;;;;;;;;;;;16.72;55.67;101355.38;5065096;28;1441;-60
2023/09/17 01:55:16;;;;;;;;;;;;;;;16.64;55.23;101348.44;5076460;28;1055;-60
2023/09/17 01:57:42;;;;;;;;;;;;;;;16.63;55.08;101345.94;5068867;28;1038;-59
2023/09/17 02:00:19;;;;;;;;;;;;;;;16.54;54.93;101348.34;5053652;28;1482;-60
2023/09/17 02:02:49;;;;;;;;;;;;;;;16.51;54.89;101346.09;5072027;28;1146;-60
2023/09/17 02:05:20;;;;;;;;;;;;;;;16.42;54.77;101346.59;5072412;28;1207;-60
2023/09/17 02:07:46;;;;;;;;;;;;;;;16.36;54.70;101346.78;5023607;28;1126;-61
2023/09/17 02:10:11;;;;;;;;;;;;;;;16.87;56.53;101346.44;5060892;28;1930;-60
2023/09/17 02:12:37;;;;;;;;;;;;;;;17.64;56.90;101337.94;5058903;28;1042;-61
2023/09/17 02:15:03;;;;;;;;;;;;;;;17.03;57.09;101334.53;5057991;28;1508;-60
2023/09/17 02:17:29;;;;;;;;;;;;;;;16.88;56.52;101334.38;5058361;28;1589;-61
2023/09/17 02:19:54;;;;;;;;;;;;;;;16.74;56.17;101337.53;5062833;28;1051;-61
2023/09/17 02:22:20;;;;;;;;;;;;;;;16.65;55.68;101333.63;5048213;28;1540;-61
2023/09/17 02:24:46;;;;;;;;;;;;;;;16.57;55.58;101334.09;5038550;28;1150;-60
2023/09/17 02:27:13;;;;;;;;;;;;;;;16.52;55.29;101345.88;5066527;28;1075;-60
2023/09/17 02:29:39;;;;;;;;;;;;;;;16.45;55.10;101339.72;5076593;28;1062;-60
2023/09/17 02:32:05;;;;;;;;;;;;;;;16.76;56.58;101335.38;5065765;28;1984;-61
2023/09/17 02:34:30;;;;;;;;;;;;;;;17.60;57.17;101340.41;5042418;28;1091;-61
2023/09/17 02:36:56;;;;;;;;;;;;;;;17.08;56.97;101339.22;5058506;28;1194;-59
2023/09/17 02:39:21;;;;;;;;;;;;;;;16.89;56.50;101327.81;5072039;28;1089;-59
2023/09/17 02:41:47;;;;;;;;;;;;;;;16.79;56.09;101335.94;5066956;28;1167;-59
2023/09/17 02:44:13;;;;;;;;;;;;;;;16.68;55.50;101332.28;5072656;28;1229;-59
2023/09/17 02:46:40;;;;;;;;;;;;;;;16.60;55.46;101330.81;5066036;28;1141;-60
2023/09/17 02:49:05;;;;;;;;;;;;;;;16.54;55.22;101329.94;5055036;28;1615;-59
2023/09/17 02:51:31;;;;;;;;;;;;;;;16.53;55.11;101341.19;5065301;28;1905;-60
2023/09/17 02:53:56;;;;;;;;;;;;;;;16.45;54.99;101338.91;5072502;28;1221;-60
2023/09/17 02:56:22;;;;;;;;;;;;;;;16.40;55.02;101329.53;5048574;28;1166;-61
2023/09/17 02:58:48;;;;;;;;;;;;;;;16.37;54.70;101338.28;5059204;28;1091;-60
2023/09/17 03:01:17;;;;;;;;;;;;;;;16.65;56.72;101339.13;5048822;28;1159;-60
2023/09/17 03:03:50;;;;;;;;;;;;;;;17.47;57.27;101341.69;5050195;28;1166;-60
2023/09/17 03:06:16;;;;;;;;;;;;;;;16.98;57.01;101342.72;5057575;28;1165;-60
2023/09/17 03:08:41;;;;;;;;;;;;;;;16.81;56.49;101348.31;5076085;28;1117;-61
2023/09/17 03:11:13;;;;;;;;;;;;;;;16.68;55.99;101352.31;5046388;28;1906;-60
2023/09/17 03:13:43;;;;;;;;;;;;;;;16.60;55.39;101358.28;5038151;28;1480;-60
2023/09/17 03:16:09;;;;;;;;;;;;;;;16.51;55.14;101365.31;5050053;28;1245;-60
2023/09/17 03:18:35;;;;;;;;;;;;;;;16.41;55.11;101353.16;5065252;28;1139;-60
2023/09/17 03:21:06;;;;;;;;;;;;;;;16.43;54.88;101356.47;5053022;28;1142;-63
2023/09/17 03:23:31;;;;;;;;;;;;;;;16.62;56.27;101364.34;5061823;28;1216;-61
2023/09/17 03:25:57;;;;;;;;;;;;;;;17.64;56.75;101360.75;5079945;28;1120;-61
2023/09/17 03:28:23;;;;;;;;;;;;;;;17.14;56.58;101356.56;5058986;28;1190;-60
2023/09/17 03:30:48;;;;;;;;;;;;;;;16.83;56.48;101362.63;5061398;28;1901;-63
2023/09/17 03:33:14;;;;;;;;;;;;;;;16.72;55.90;101356.22;5076354;28;1118;-61
2023/09/17 03:35:43;;;;;;;;;;;;;;;16.65;55.35;101357.50;5060064;28;1114;-60
2023/09/17 03:38:09;;;;;;;;;;;;;;;16.59;55.12;101356.63;5048781;28;1221;-60
2023/09/17 03:40:35;;;;;;;;;;;;;;;16.50;54.88;101352.69;5048241;28;1289;-60
2023/09/17 03:43:01;;;;;;;;;;;;;;;16.45;54.85;101358.13;5054813;28;1126;-60
2023/09/17 03:45:27;;;;;;;;;;;;;;;16.40;54.51;101359.72;5072625;28;1035;-60
2023/09/17 03:47:53;;;;;;;;;;;;;;;16.39;54.58;101357.25;5032187;28;1331;-60
2023/09/17 03:50:19;;;;;;;;;;;;;;;16.87;56.24;101357.44;5079652;28;1910;-58
2023/09/17 03:52:45;;;;;;;;;;;;;;;17.51;56.46;101366.75;5065308;28;1230;-56
2023/09/17 03:55:11;;;;;;;;;;;;;;;17.01;56.57;101361.44;5061673;28;1131;-57
2023/09/17 03:57:37;;;;;;;;;;;;;;;16.86;55.94;101358.53;5061200;28;1345;-60
2023/09/17 04:00:07;;;;;;;;;;;;;;;16.68;55.55;101367.97;5061095;28;1235;-60
2023/09/17 04:02:37;;;;;;;;;;;;;;;16.58;55.51;101361.28;5079300;28;1146;-56
2023/09/17 04:05:13;;;;;;;;;;;;;;;16.57;54.94;101369.78;5077242;28;1145;-57
2023/09/17 04:07:40;;;;;;;;;;;;;;;16.45;54.86;101369.09;5078567;28;1027;-55
2023/09/17 04:10:06;;;;;;;;;;;;;;;16.43;54.74;101364.69;5047455;28;1107;-56
2023/09/17 04:12:33;;;;;;;;;;;;;;;16.38;54.50;101361.91;5046955;28;1110;-55
2023/09/17 04:14:58;;;;;;;;;;;;;;;16.86;56.43;101364.84;5063010;28;2710;-56
2023/09/17 04:17:24;;;;;;;;;;;;;;;17.57;56.17;101357.41;5077620;28;1056;-56
2023/09/17 04:19:50;;;;;;;;;;;;;;;17.01;56.58;101364.19;5078784;28;1015;-56
2023/09/17 04:22:16;;;;;;;;;;;;;;;16.80;56.08;101357.63;5078326;28;1059;-56
2023/09/17 04:24:42;;;;;;;;;;;;;;;16.66;55.73;101362.75;5077852;28;1023;-55
2023/09/17 04:27:08;;;;;;;;;;;;;;;16.63;55.22;101355.00;5041624;28;1125;-58
2023/09/17 04:29:33;;;;;;;;;;;;;;;16.58;55.06;101357.72;5047096;28;1122;-56
2023/09/17 04:31:59;;;;;;;;;;;;;;;16.50;54.81;101370.00;5071317;28;1914;-56
2023/09/17 04:34:25;;;;;;;;;;;;;;;16.45;54.88;101366.34;5058474;28;1039;-56
2023/09/17 04:36:51;;;;;;;;;;;;;;;16.42;54.57;101365.81;5067610;28;1222;-58
2023/09/17 04:39:17;;;;;;;;;;;;;;;16.43;55.20;101364.69;5026849;28;1186;-57
2023/09/17 04:41:43;;;;;;;;;;;;;;;16.98;56.78;101367.44;5077899;28;1086;-55
2023/09/17 04:44:10;;;;;;;;;;;;;;;16.37;55.39;101373.97;5052733;28;1856;-59
2023/09/17 04:46:39;;;;;;;;;;;;;;;16.25;53.35;101367.78;5059690;28;1107;-60
2023/09/17 04:49:06;;;;;;;;;;;;;;;16.18;51.83;101359.75;5046953;28;1138;-59
2023/09/17 04:51:33;;;;;;;;;;;;;;;16.15;50.75;101375.91;5050810;28;1902;-57
2023/09/17 04:53:58;;;;;;;;;;;;;;;16.14;50.25;101371.50;5055740;28;1066;-58
2023/09/17 04:56:24;;;;;;;;;;;;;;;16.40;51.32;101376.19;5040494;28;1142;-58
2023/09/17 04:58:51;;;;;;;;;;;;;;;16.32;52.31;101371.16;5043393;28;1109;-58
2023/09/17 05:01:16;;;;;;;;;;;;;;;16.26;50.94;101374.94;5050421;28;1331;-56
2023/09/17 05:03:43;;;;;;;;;;;;;;;16.23;49.89;101378.22;5046254;28;1292;-58
2023/09/17 05:06:08;;;;;;;;;;;;;;;16.84;51.67;101374.44;5077631;28;1007;-57
2023/09/17 05:08:34;;;;;;;;;;;;;;;16.41;51.29;101369.63;5055655;28;1490;-57
2023/09/17 05:11:01;;;;;;;;;;;;;;;16.29;50.26;101374.44;5039808;28;1909;-60
2023/09/17 05:13:27;;;;;;;;;;;;;;;16.31;49.57;101377.72;5057770;28;1804;-57
2023/09/17 05:15:52;;;;;;;;;;;;;;;16.28;48.71;101372.75;5060057;28;1000;-57
2023/09/17 05:18:18;;;;;;;;;;;;;;;16.19;48.67;101371.56;5060075;28;1094;-57
2023/09/17 05:20:48;;;;;;;;;;;;;;;16.20;48.05;101371.31;5049939;28;2014;-57
2023/09/17 05:23:13;;;;;;;;;;;;;;;16.96;49.71;101375.13;5077408;28;1181;-57
2023/09/17 05:25:39;;;;;;;;;;;;;;;16.53;49.89;101371.38;5043046;28;1306;-57
2023/09/17 05:28:07;;;;;;;;;;;;;;;16.43;49.05;101363.88;5072649;28;1098;-56
2023/09/17 05:30:34;;;;;;;;;;;;;;;16.37;48.43;101376.72;5039763;28;1905;-57
2023/09/17 05:33:00;;;;;;;;;;;;;;;16.39;47.89;101377.28;5070437;28;1051;-56
2023/09/17 05:35:26;;;;;;;;;;;;;;;16.24;47.72;101371.63;5051011;28;1198;-59
2023/09/17 05:37:51;;;;;;;;;;;;;;;16.14;47.99;101377.00;5071767;28;1150;-58
2023/09/17 05:40:17;;;;;;;;;;;;;;;16.16;47.77;101372.06;5044486;28;1139;-57
2023/09/17 05:42:43;;;;;;;;;;;;;;;16.18;47.44;101372.66;5070521;28;1126;-57
2023/09/17 05:45:09;;;;;;;;;;;;;;;16.15;47.11;101359.44;5045065;28;2694;-58
2023/09/17 05:47:34;;;;;;;;;;;;;;;16.12;47.40;101362.69;5052294;28;1205;-57
2023/09/17 05:50:00;;;;;;;;;;;;;;;16.04;47.24;101369.47;5038800;28;1221;-57
2023/09/17 05:52:31;;;;;;;;;;;;;;;16.12;46.94;101369.03;5043997;28;1906;-60
2023/09/17 05:54:57;;;;;;;;;;;;;;;15.99;47.29;101372.13;5058726;28;1151;-56
2023/09/17 05:57:22;;;;;;;;;;;;;;;16.01;47.17;101372.72;5045639;28;1304;-57
2023/09/17 05:59:48;;;;;;;;;;;;;;;16.06;47.10;101370.03;5046351;28;1316;-56
2023/09/17 06:02:14;;;;;;;;;;;;;;;16.02;47.10;101369.72;5044378;28;1496;-57
2023/09/17 06:04:39;;;;;;;;;;;;;;;16.04;46.76;101367.53;5070332;28;1018;-57
2023/09/17 06:07:06;;;;;;;;;;;;;;;16.06;46.85;101375.50;5053277;28;1221;-57
2023/09/17 06:09:31;;;;;;;;;;;;;;;16.50;48.13;101375.47;5050748;28;1236;-58
2023/09/17 06:11:57;;;;;;;;;;;;;;;16.43;49.16;101369.38;5057320;28;1917;-58
2023/09/17 06:14:23;;;;;;;;;;;;;;;16.30;48.48;101378.00;5057033;28;1771;-57
2023/09/17 06:16:49;;;;;;;;;;;;;;;16.30;47.77;101372.50;5044969;28;1390;-59
2023/09/17 06:19:15;;;;;;;;;;;;;;;16.16;47.60;101375.66;5076215;28;995;-57
2023/09/17 06:21:43;;;;;;;;;;;;;;;16.15;47.45;101375.91;5045087;28;1301;-57
2023/09/17 06:24:09;;;;;;;;;;;;;;;16.18;47.04;101380.88;5045992;28;1390;-57
2023/09/17 06:26:35;;;;;;;;;;;;;;;16.17;46.94;101380.06;5038540;28;1099;-56
2023/09/17 06:29:00;;;;;;;;;;;;;;;16.20;46.70;101381.44;5050073;28;1178;-56
2023/09/17 06:31:26;;;;;;;;;;;;;;;16.13;46.83;101380.81;5044508;28;1965;-56
2023/09/17 06:33:53;;;;;;;;;;;;;;;15.99;47.24;101375.72;5045959;28;1299;-55
2023/09/17 06:36:19;;;;;;;;;;;;;;;16.12;47.04;101387.38;5043335;28;1126;-56
2023/09/17 06:38:46;;;;;;;;;;;;;;;16.05;46.96;101380.19;5046422;28;1106;-57
2023/09/17 06:41:11;;;;;;;;;;;;;;;16.04;46.81;101384.00;5071772;28;1107;-57
2023/09/17 06:43:37;;;;;;;;;;;;;;;16.07;46.90;101383.50;5068734;28;2387;-56
2023/09/17 06:46:02;;;;;;;;;;;;;;;16.04;46.98;101394.97;5070197;28;1050;-57
2023/09/17 06:48:28;;;;;;;;;;;;;;;16.05;46.95;101404.88;5068174;28;1082;-57
2023/09/17 06:50:54;;;;;;;;;;;;;;;16.00;46.92;101399.31;5057692;28;1989;-58
2023/09/17 06:53:19;;;;;;;;;;;;;;;16.65;48.54;101383.06;5074969;28;1436;-57
2023/09/17 06:55:45;;;;;;;;;;;;;;;16.46;48.67;101387.25;5061783;28;1067;-57
2023/09/17 06:58:12;;;;;;;;;;;;;;;16.36;48.11;101390.69;5075720;28;1098;-57
2023/09/17 07:00:37;;;;;;;;;;;;;;;16.40;47.61;101389.09;5070414;28;1148;-57
2023/09/17 07:03:03;;;;;;;;;;;;;;;16.30;47.60;101395.31;5068031;28;1015;-56
2023/09/17 07:05:28;;;;;;;;;;;;;;;16.29;47.61;101385.41;5060419;28;1202;-57
2023/09/17 07:07:55;;;;;;;;;;;;;;;16.22;47.83;101387.53;5055493;28;1023;-57
2023/09/17 07:10:20;;;;;;;;;;;;;;;16.23;47.57;101391.94;5074683;28;1902;-58
2023/09/17 07:12:46;;;;;;;;;;;;;;;16.21;47.65;101391.34;5075363;28;1040;-57
2023/09/17 07:15:12;;;;;;;;;;;;;;;16.25;47.63;101389.75;5056253;28;2223;-57
2023/09/17 07:17:39;;;;;;;;;;;;;;;16.25;47.48;101395.22;5058443;28;1111;-57
2023/09/17 07:20:05;;;;;;;;;;;;;;;16.26;47.27;101407.88;5075184;28;1119;-57
2023/09/17 07:22:30;;;;;;;;;;;;;;;16.17;47.46;101401.16;5075652;28;1107;-57
2023/09/17 07:24:58;;;;;;;;;;;;;;;16.64;48.04;101392.38;5061986;28;1118;-58
2023/09/17 07:27:29;;;;;;;;;;;;;;;16.73;49.29;101401.81;5061951;28;1069;-56
2023/09/17 07:29:54;;;;;;;;;;;;;;;16.64;48.72;101403.34;5058321;28;936;-56
2023/09/17 07:32:20;;;;;;;;;;;;;;;16.54;48.25;101398.59;5055705;28;1898;-57
2023/09/17 07:34:46;;;;;;;;;;;;;;;16.40;48.35;101395.41;5055680;28;1067;-56
2023/09/17 07:37:11;;;;;;;;;;;;;;;16.39;48.00;101399.22;5069600;28;1036;-57
2023/09/17 07:39:38;;;;;;;;;;;;;;;16.44;47.62;101393.00;5062083;28;1067;-56
2023/09/17 07:42:04;;;;;;;;;;;;;;;16.38;47.72;101394.84;5062546;28;1053;-58
2023/09/17 07:44:29;;;;;;;;;;;;;;;16.31;47.52;101405.16;5062334;28;2439;-56
2023/09/17 07:46:55;;;;;;;;;;;;;;;16.38;47.19;101391.25;5055422;28;1023;-56
2023/09/17 07:49:24;;;;;;;;;;;;;;;16.39;47.37;101395.66;5069069;28;1034;-56
2023/09/17 07:51:50;;;;;;;;;;;;;;;16.39;47.17;101391.00;5055304;28;1913;-57
2023/09/17 07:54:16;;;;;;;;;;;;;;;16.39;46.98;101396.50;5074773;28;1082;-56
2023/09/17 07:56:41;;;;;;;;;;;;;;;16.40;47.16;101400.91;5075059;28;1082;-60
2023/09/17 07:59:07;;;;;;;;;;;;;;;16.40;46.97;101395.41;5061674;28;1059;-57
2023/09/17 08:01:32;;;;;;;;;;;;;;;16.42;47.06;101400.63;5075170;28;1042;-58
2023/09/17 08:03:58;;;;;;;;;;;;;;;16.32;47.43;101389.56;5069833;28;1066;-57
2023/09/17 08:06:25;;;;;;;;;;;;;;;16.47;47.53;101395.22;5071370;28;887;-56
2023/09/17 08:08:50;;;;;;;;;;;;;;;16.89;48.95;101391.00;5059467;28;1090;-57
2023/09/17 08:11:16;;;;;;;;;;;;;;;16.71;48.84;101387.50;5068101;28;1960;-56
2023/09/17 08:13:42;;;;;;;;;;;;;;;16.63;48.49;101389.88;5046867;28;1781;-56
2023/09/17 08:16:07;;;;;;;;;;;;;;;16.57;48.17;101389.81;5078286;28;1065;-55
2023/09/17 08:18:33;;;;;;;;;;;;;;;16.61;47.99;101392.91;5060156;28;1138;-58
2023/09/17 08:20:58;;;;;;;;;;;;;;;16.49;47.91;101397.69;5078555;28;996;-60
2023/09/17 08:23:24;;;;;;;;;;;;;;;16.48;47.96;101394.13;5072443;28;1047;-60
2023/09/17 08:25:50;;;;;;;;;;;;;;;16.50;47.58;101391.94;5071106;28;1126;-62
2023/09/17 08:28:16;;;;;;;;;;;;;;;16.51;47.43;101398.25;5065039;28;1118;-60
2023/09/17 08:30:42;;;;;;;;;;;;;;;16.43;47.41;101396.81;5077450;28;2034;-61
2023/09/17 08:33:09;;;;;;;;;;;;;;;16.45;47.35;101397.38;5064995;28;1031;-61
2023/09/17 08:35:35;;;;;;;;;;;;;;;16.47;47.25;101397.16;5078235;28;1105;-59
2023/09/17 08:38:01;;;;;;;;;;;;;;;16.46;47.26;101385.31;5065027;28;1003;-58
2023/09/17 08:40:27;;;;;;;;;;;;;;;16.41;47.17;101397.06;5078135;28;979;-59
2023/09/17 08:42:53;;;;;;;;;;;;;;;16.51;47.26;101392.75;5064292;28;1068;-60
2023/09/17 08:45:18;;;;;;;;;;;;;;;16.48;47.04;101396.88;5065628;28;2506;-59
2023/09/17 08:47:44;;;;;;;;;;;;;;;16.39;47.57;101388.25;5040346;28;1063;-60
2023/09/17 08:50:10;;;;;;;;;;;;;;;16.37;47.37;101392.38;5057877;28;1394;-61
2023/09/17 08:52:35;;;;;;;;;;;;;;;16.47;47.24;101397.16;5077144;28;1995;-59
2023/09/17 08:55:02;;;;;;;;;;;;;;;16.43;47.30;101397.63;5077129;28;973;-60
2023/09/17 08:57:28;;;;;;;;;;;;;;;16.39;47.46;101390.19;5065622;28;1048;-60
2023/09/17 09:00:08;;;;;;;;;;;;;;;16.32;47.47;101393.13;5077121;28;1113;-58
2023/09/17 09:02:33;;;;;;;;;;;;;;;16.39;47.30;101401.97;5067335;28;1004;-57
2023/09/17 09:04:59;;;;;;;;;;;;;;;16.36;47.50;101390.69;5046763;28;984;-58
2023/09/17 09:07:25;;;;;;;;;;;;;;;16.40;47.22;101392.66;5041844;28;894;-58
2023/09/17 09:09:51;;;;;;;;;;;;;;;16.38;47.15;101394.84;5071348;28;1059;-58
2023/09/17 09:12:16;;;;;;;;;;;;;;;16.40;47.18;101392.66;5066405;28;1914;-59
2023/09/17 09:14:42;;;;;;;;;;;;;;;16.37;47.05;101386.88;5061123;28;2217;-58
2023/09/17 09:17:07;;;;;;;;;;;;;;;16.30;47.00;101376.09;5039976;28;1071;-59
2023/09/17 09:19:33;;;;;;;;;;;;;;;16.39;46.90;101387.44;5075383;28;1034;-58
2023/09/17 09:21:58;;;;;;;;;;;;;;;16.41;47.01;101390.75;5077553;28;1101;-62
2023/09/17 09:24:24;;;;;;;;;;;;;;;16.38;47.05;101383.88;5063853;28;1101;-60
2023/09/17 09:26:50;;;;;;;;;;;;;;;16.36;47.37;101388.78;5050452;28;1114;-60
2023/09/17 09:29:15;;;;;;;;;;;;;;;16.37;47.33;101384.13;5070641;28;1008;-60
2023/09/17 09:31:42;;;;;;;;;;;;;;;16.36;47.48;101397.00;5075065;28;2033;-60
2023/09/17 09:34:07;;;;;;;;;;;;;;;16.53;46.79;101385.94;5076966;28;1015;-60
2023/09/17 09:36:34;;;;;;;;;;;;;;;16.46;47.29;101379.00;5075048;28;1111;-60
2023/09/17 09:39:00;;;;;;;;;;;;;;;16.42;47.24;101384.16;5045180;28;1038;-60
2023/09/17 09:41:26;;;;;;;;;;;;;;;16.38;47.32;101383.88;5069885;28;1081;-60
2023/09/17 09:43:51;;;;;;;;;;;;;;;16.36;47.23;101375.06;5049899;28;2371;-59
2023/09/17 09:46:17;;;;;;;;;;;;;;;16.40;47.11;101376.19;5057124;28;987;-61
2023/09/17 09:48:43;;;;;;;;;;;;;;;16.38;47.33;101383.88;5070412;28;1039;-60
2023/09/17 09:51:09;;;;;;;;;;;;;;;16.45;47.35;101385.56;5068401;28;1910;-60
2023/09/17 09:53:34;;;;;;;;;;;;;;;16.36;47.18;101380.53;5055435;28;1068;-61
2023/09/17 09:56:00;;;;;;;;;;;;;;;16.54;47.08;101386.78;5074076;28;832;-60
2023/09/17 09:58:25;;;;;;;;;;;;;;;16.48;47.26;101387.78;5074657;28;1065;-60
2023/09/17 10:00:51;;;;;;;;;;;;;;;16.46;47.51;101390.00;5069191;28;1087;-61
2023/09/17 10:03:17;;;;;;;;;;;;;;;16.42;47.38;101379.53;5050600;28;1162;-59
2023/09/17 10:05:44;;;;;;;;;;;;;;;16.40;47.23;101384.44;5045319;28;1035;-60
2023/09/17 10:08:10;;;;;;;;;;;;;;;16.43;47.30;101385.84;5070428;28;857;-60
2023/09/17 10:10:36;;;;;;;;;;;;;;;16.31;47.42;101385.97;5075358;28;1976;-60
2023/09/17 10:13:05;;;;;;;;;;;;;;;16.42;47.38;101390.50;5061731;28;1843;-60
2023/09/17 10:15:31;;;;;;;;;;;;;;;16.49;47.30;101389.47;5056780;28;1123;-61
2023/09/17 10:17:56;;;;;;;;;;;;;;;16.43;47.24;101394.06;5038966;28;1138;-61
2023/09/17 10:20:22;;;;;;;;;;;;;;;16.38;47.46;101383.88;5038494;28;1004;-61
2023/09/17 10:22:47;;;;;;;;;;;;;;;16.36;47.36;101393.44;5039837;28;1056;-59
2023/09/17 10:25:14;;;;;;;;;;;;;;;16.45;47.15;101394.63;5050488;28;1019;-58
2023/09/17 10:27:40;;;;;;;;;;;;;;;16.45;47.33;101393.81;5070193;28;1066;-58
2023/09/17 10:30:06;;;;;;;;;;;;;;;16.45;47.40;101402.88;5049851;28;1019;-58
2023/09/17 10:32:32;;;;;;;;;;;;;;;16.40;47.60;101400.09;5053757;28;1991;-57
2023/09/17 10:34:57;;;;;;;;;;;;;;;16.37;47.63;101384.94;5075542;28;1011;-60
2023/09/17 10:37:23;;;;;;;;;;;;;;;16.46;47.43;101392.72;5056235;28;1202;-58
2023/09/17 10:39:49;;;;;;;;;;;;;;;16.47;47.32;101403.44;5055827;28;1016;-58
2023/09/17 10:42:14;;;;;;;;;;;;;;;16.49;47.18;101412.25;5070835;28;1059;-59
2023/09/17 10:44:40;;;;;;;;;;;;;;;16.39;47.39;101412.13;5046657;28;2533;-59
2023/09/17 10:47:07;;;;;;;;;;;;;;;16.36;47.18;101413.47;5055770;28;1043;-59
2023/09/17 10:49:32;;;;;;;;;;;;;;;16.46;47.24;101407.28;5075492;28;1070;-59
2023/09/17 10:51:58;;;;;;;;;;;;;;;16.34;47.40;101407.44;5076029;28;1910;-60
2023/09/17 10:54:24;;;;;;;;;;;;;;;16.38;47.24;101408.56;5055467;28;1015;-60
2023/09/17 10:56:49;;;;;;;;;;;;;;;16.40;47.10;101411.88;5051148;28;1035;-59
2023/09/17 10:59:15;;;;;;;;;;;;;;;16.45;46.98;101407.53;5038393;28;1088;-60
2023/09/17 11:01:41;;;;;;;;;;;;;;;16.31;47.27;101399.69;5055507;28;1334;-60
2023/09/17 11:04:12;;;;;;;;;;;;;;;16.33;47.37;101403.00;5055928;28;1086;-59
2023/09/17 11:06:38;;;;;;;;;;;;;;;16.46;47.06;101407.28;5056736;28;1035;-58
2023/09/17 11:09:06;;;;;;;;;;;;;;;16.39;47.03;101398.41;5056125;28;1122;-59
2023/09/17 11:11:32;;;;;;;;;;;;;;;16.43;47.17;101391.31;5060552;28;1919;-60
2023/09/17 11:13:57;;;;;;;;;;;;;;;16.39;47.19;101385.50;5075649;28;1822;-59
2023/09/17 11:16:25;;;;;;;;;;;;;;;16.42;47.26;101382.28;5075647;28;1094;-60
2023/09/17 11:19:03;;;;;;;;;;;;;;;16.40;47.43;101392.66;5075251;28;1126;-59
2023/09/17 11:21:28;;;;;;;;;;;;;;;16.39;47.46;101401.16;5055698;28;976;-65
2023/09/17 11:23:54;;;;;;;;;;;;;;;16.44;47.26;101393.00;5068785;28;1067;-62
2023/09/17 11:26:20;;;;;;;;;;;;;;;16.42;47.09;101385.03;5057320;28;1163;-58
2023/09/17 11:28:46;;;;;;;;;;;;;;;16.47;47.05;101402.63;5062015;28;1085;-58
2023/09/17 11:31:14;;;;;;;;;;;;;;;16.47;47.01;101399.88;5043723;28;1980;-59
2023/09/17 11:33:41;;;;;;;;;;;;;;;16.38;47.23;101397.59;5075641;28;1035;-57
2023/09/17 11:36:07;;;;;;;;;;;;;;;16.41;46.86;101402.56;5057490;28;1146;-58
2023/09/17 11:38:32;;;;;;;;;;;;;;;16.42;47.01;101401.50;5058645;28;1123;-58
2023/09/17 11:41:01;;;;;;;;;;;;;;;16.31;47.23;101407.91;5043946;28;963;-58
2023/09/17 11:43:26;;;;;;;;;;;;;;;16.35;47.14;101398.09;5067015;28;2247;-58
2023/09/17 11:45:52;;;;;;;;;;;;;;;16.46;46.91;101395.47;5074972;28;1082;-58
2023/09/17 11:48:17;;;;;;;;;;;;;;;16.42;46.88;101400.63;5069511;28;1103;-57
2023/09/17 11:50:43;;;;;;;;;;;;;;;16.41;47.03;101415.44;5075003;28;1905;-58
2023/09/17 11:53:08;;;;;;;;;;;;;;;16.35;47.28;101400.84;5069800;28;1142;-59
2023/09/17 11:55:34;;;;;;;;;;;;;;;16.35;46.94;101389.03;5070662;28;1073;-58
2023/09/17 11:58:13;;;;;;;;;;;;;;;16.41;46.97;101397.06;5070039;28;1001;-59
2023/09/17 12:00:38;;;;;;;;;;;;;;;16.40;46.79;101391.84;5065379;28;1165;-60
2023/09/17 12:03:04;;;;;;;;;;;;;;;16.41;46.80;101399.81;5078981;28;974;-59
2023/09/17 12:05:29;;;;;;;;;;;;;;;16.38;47.03;101394.84;5073005;28;1062;-57
2023/09/17 12:07:55;;;;;;;;;;;;;;;16.50;46.86;101396.63;5068526;28;1090;-59
2023/09/17 12:10:26;;;;;;;;;;;;;;;16.46;47.14;101401.78;5041919;28;1117;-57
2023/09/17 12:12:52;;;;;;;;;;;;;;;16.31;46.96;101393.38;5058637;28;1063;-57
2023/09/17 12:15:18;;;;;;;;;;;;;;;16.40;46.88;101395.41;5047247;28;1833;-59
2023/09/17 12:17:44;;;;;;;;;;;;;;;16.47;46.93;101386.16;5065337;28;1093;-58
2023/09/17 12:23:36;;;;;;;;;;;;;;;16.47;46.84;101389.72;5057450;28;1318;-58
2023/09/17 12:26:04;;;;;;;;;;;;;;;16.33;47.14;101393.97;5059503;28;1190;-59
2023/09/17 12:28:29;;;;;;;;;;;;;;;16.41;46.80;101388.00;5071248;28;1023;-58
2023/09/17 12:30:55;;;;;;;;;;;;;;;16.30;47.15;101387.06;5045973;28;1975;-58
2023/09/17 12:33:20;;;;;;;;;;;;;;;16.41;47.13;101383.34;5058908;28;1011;-57
2023/09/17 12:35:46;;;;;;;;;;;;;;;16.39;46.95;101382.75;5040741;28;1024;-57
2023/09/17 12:38:11;;;;;;;;;;;;;;;16.43;47.09;101383.91;5058889;28;1043;-58
2023/09/17 12:40:38;;;;;;;;;;;;;;;16.36;47.32;101383.28;5058172;28;997;-57
2023/09/17 12:43:04;;;;;;;;;;;;;;;16.37;47.18;101384.13;5077076;28;1762;-60
2023/09/17 12:45:29;;;;;;;;;;;;;;;16.39;46.82;101369.03;5070803;28;1019;-56